sensor_id;sensor_type;location;lat;lon;timestamp;P1;durP1;ratioP1;P2;durP2;ratioP2
13014;SDS011;6573;57.696;11.950;2023-04-23T00:02:25;12.60;;;2.23;;
13014;SDS011;6573;57.696;11.950;2023-04-23T00:04:56;4.67;;;2.00;;
13014;SDS011;6573;57.696;11.950;2023-04-23T00:07:30;3.00;;;1.90;;
13014;SDS011;6573;57.696;11.950;2023-04-23T00:10:00;3.77;;;2.00;;
13014;SDS011;6573;57.696;11.950;2023-04-23T00:12:32;2.67;;;2.00;;
13014;SDS011;6573;57.696;11.950;2023-04-23T00:15:01;3.07;;;2.17;;
13014;SDS011;6573;57.696;11.950;2023-04-23T00:17:30;2.00;;;1.80;;
13014;SDS011;6573;57.696;11.950;2023-04-23T00:19:59;6.47;;;1.90;;
13014;SDS011;6573;57.696;11.950;2023-04-23T00:22:27;2.63;;;1.50;;
13014;SDS011;6573;57.696;11.950;2023-04-23T00:24:55;2.57;;;1.90;;
13014;SDS011;6573;57.696;11.950;2023-04-23T00:27:24;3.40;;;1.90;;
13014;SDS011;6573;57.696;11.950;2023-04-23T00:29:53;4.13;;;1.90;;
13014;SDS011;6573;57.696;11.950;2023-04-23T00:32:22;4.57;;;2.00;;
13014;SDS011;6573;57.696;11.950;2023-04-23T00:34:50;6.37;;;2.17;;
13014;SDS011;6573;57.696;11.950;2023-04-23T00:37:20;3.77;;;2.17;;
13014;SDS011;6573;57.696;11.950;2023-04-23T00:39:48;3.00;;;1.60;;
13014;SDS011;6573;57.696;11.950;2023-04-23T00:42:16;2.33;;;2.10;;
13014;SDS011;6573;57.696;11.950;2023-04-23T00:44:44;3.73;;;2.03;;
13014;SDS011;6573;57.696;11.950;2023-04-23T00:47:14;4.80;;;1.80;;
13014;SDS011;6573;57.696;11.950;2023-04-23T00:49:43;5.53;;;2.20;;
13014;SDS011;6573;57.696;11.950;2023-04-23T00:52:12;5.13;;;2.27;;
13014;SDS011;6573;57.696;11.950;2023-04-23T00:54:40;2.33;;;1.20;;
13014;SDS011;6573;57.696;11.950;2023-04-23T00:57:09;4.57;;;2.20;;
13014;SDS011;6573;57.696;11.950;2023-04-23T00:59:37;6.90;;;2.80;;
13014;SDS011;6573;57.696;11.950;2023-04-23T01:02:06;4.23;;;2.20;;
13014;SDS011;6573;57.696;11.950;2023-04-23T01:04:36;3.03;;;2.20;;
13014;SDS011;6573;57.696;11.950;2023-04-23T01:07:05;5.47;;;2.47;;
13014;SDS011;6573;57.696;11.950;2023-04-23T01:09:34;4.10;;;2.23;;
13014;SDS011;6573;57.696;11.950;2023-04-23T01:12:03;9.43;;;2.60;;
13014;SDS011;6573;57.696;11.950;2023-04-23T01:14:33;11.93;;;4.40;;
13014;SDS011;6573;57.696;11.950;2023-04-23T01:17:02;6.67;;;2.40;;
13014;SDS011;6573;57.696;11.950;2023-04-23T01:19:31;3.23;;;2.10;;
13014;SDS011;6573;57.696;11.950;2023-04-23T01:22:01;4.73;;;2.10;;
13014;SDS011;6573;57.696;11.950;2023-04-23T01:24:30;4.33;;;1.90;;
13014;SDS011;6573;57.696;11.950;2023-04-23T01:26:59;2.73;;;1.83;;
13014;SDS011;6573;57.696;11.950;2023-04-23T01:29:28;4.90;;;2.20;;
13014;SDS011;6573;57.696;11.950;2023-04-23T01:31:56;3.07;;;2.40;;
13014;SDS011;6573;57.696;11.950;2023-04-23T01:34:26;2.30;;;2.00;;
13014;SDS011;6573;57.696;11.950;2023-04-23T01:36:55;3.30;;;1.83;;
13014;SDS011;6573;57.696;11.950;2023-04-23T01:39:24;2.67;;;2.20;;
13014;SDS011;6573;57.696;11.950;2023-04-23T01:41:54;2.83;;;1.93;;
13014;SDS011;6573;57.696;11.950;2023-04-23T01:44:24;2.47;;;2.20;;
13014;SDS011;6573;57.696;11.950;2023-04-23T01:46:52;2.43;;;2.00;;
13014;SDS011;6573;57.696;11.950;2023-04-23T01:49:20;3.67;;;2.00;;
13014;SDS011;6573;57.696;11.950;2023-04-23T01:51:49;7.30;;;2.90;;
13014;SDS011;6573;57.696;11.950;2023-04-23T01:54:17;4.47;;;2.33;;
13014;SDS011;6573;57.696;11.950;2023-04-23T01:56:45;4.97;;;2.53;;
13014;SDS011;6573;57.696;11.950;2023-04-23T01:59:15;3.93;;;2.00;;
13014;SDS011;6573;57.696;11.950;2023-04-23T02:01:43;3.17;;;2.23;;
13014;SDS011;6573;57.696;11.950;2023-04-23T02:04:13;4.83;;;2.20;;
13014;SDS011;6573;57.696;11.950;2023-04-23T02:06:43;6.27;;;2.40;;
13014;SDS011;6573;57.696;11.950;2023-04-23T02:09:13;2.87;;;2.57;;
13014;SDS011;6573;57.696;11.950;2023-04-23T02:11:41;3.83;;;2.43;;
13014;SDS011;6573;57.696;11.950;2023-04-23T02:14:09;2.67;;;2.10;;
13014;SDS011;6573;57.696;11.950;2023-04-23T02:16:39;4.20;;;2.10;;
13014;SDS011;6573;57.696;11.950;2023-04-23T02:19:08;4.17;;;2.00;;
13014;SDS011;6573;57.696;11.950;2023-04-23T02:21:38;3.27;;;2.20;;
13014;SDS011;6573;57.696;11.950;2023-04-23T02:24:06;5.67;;;2.10;;
13014;SDS011;6573;57.696;11.950;2023-04-23T02:26:34;2.80;;;2.20;;
13014;SDS011;6573;57.696;11.950;2023-04-23T02:29:02;4.40;;;2.20;;
13014;SDS011;6573;57.696;11.950;2023-04-23T02:31:31;4.93;;;2.30;;
13014;SDS011;6573;57.696;11.950;2023-04-23T02:34:01;4.37;;;1.90;;
13014;SDS011;6573;57.696;11.950;2023-04-23T02:36:29;3.97;;;2.13;;
13014;SDS011;6573;57.696;11.950;2023-04-23T02:38:57;3.27;;;2.00;;
13014;SDS011;6573;57.696;11.950;2023-04-23T02:41:26;3.27;;;1.93;;
13014;SDS011;6573;57.696;11.950;2023-04-23T02:43:54;4.90;;;2.00;;
13014;SDS011;6573;57.696;11.950;2023-04-23T02:46:22;2.23;;;1.87;;
13014;SDS011;6573;57.696;11.950;2023-04-23T02:48:50;5.50;;;2.20;;
13014;SDS011;6573;57.696;11.950;2023-04-23T02:51:20;3.43;;;1.90;;
13014;SDS011;6573;57.696;11.950;2023-04-23T02:53:49;2.30;;;1.70;;
13014;SDS011;6573;57.696;11.950;2023-04-23T02:56:17;4.17;;;1.93;;
13014;SDS011;6573;57.696;11.950;2023-04-23T02:58:45;2.90;;;1.87;;
13014;SDS011;6573;57.696;11.950;2023-04-23T03:01:14;3.07;;;2.00;;
13014;SDS011;6573;57.696;11.950;2023-04-23T03:03:42;5.70;;;1.87;;
13014;SDS011;6573;57.696;11.950;2023-04-23T03:06:11;2.80;;;1.90;;
13014;SDS011;6573;57.696;11.950;2023-04-23T03:08:41;3.00;;;2.13;;
13014;SDS011;6573;57.696;11.950;2023-04-23T03:11:09;3.00;;;1.77;;
13014;SDS011;6573;57.696;11.950;2023-04-23T03:13:38;4.23;;;2.20;;
13014;SDS011;6573;57.696;11.950;2023-04-23T03:16:06;2.30;;;2.10;;
13014;SDS011;6573;57.696;11.950;2023-04-23T03:18:34;5.43;;;1.87;;
13014;SDS011;6573;57.696;11.950;2023-04-23T03:21:02;2.57;;;1.80;;
13014;SDS011;6573;57.696;11.950;2023-04-23T03:23:31;3.80;;;2.10;;
13014;SDS011;6573;57.696;11.950;2023-04-23T03:26:00;2.10;;;1.90;;
13014;SDS011;6573;57.696;11.950;2023-04-23T03:28:29;2.40;;;2.10;;
13014;SDS011;6573;57.696;11.950;2023-04-23T03:30:58;3.40;;;2.10;;
13014;SDS011;6573;57.696;11.950;2023-04-23T03:33:26;4.23;;;2.47;;
13014;SDS011;6573;57.696;11.950;2023-04-23T03:35:54;2.07;;;1.80;;
13014;SDS011;6573;57.696;11.950;2023-04-23T03:38:23;4.40;;;2.30;;
13014;SDS011;6573;57.696;11.950;2023-04-23T03:40:53;3.83;;;2.30;;
13014;SDS011;6573;57.696;11.950;2023-04-23T03:43:23;5.17;;;2.00;;
13014;SDS011;6573;57.696;11.950;2023-04-23T03:45:51;2.97;;;2.30;;
13014;SDS011;6573;57.696;11.950;2023-04-23T03:48:19;2.97;;;2.00;;
13014;SDS011;6573;57.696;11.950;2023-04-23T03:50:48;4.93;;;2.10;;
13014;SDS011;6573;57.696;11.950;2023-04-23T03:53:16;3.13;;;2.00;;
13014;SDS011;6573;57.696;11.950;2023-04-23T03:55:44;5.17;;;2.10;;
13014;SDS011;6573;57.696;11.950;2023-04-23T03:58:13;3.63;;;2.20;;
13014;SDS011;6573;57.696;11.950;2023-04-23T04:00:42;4.00;;;2.23;;
13014;SDS011;6573;57.696;11.950;2023-04-23T04:03:10;3.17;;;2.10;;
13014;SDS011;6573;57.696;11.950;2023-04-23T04:05:39;4.30;;;2.33;;
13014;SDS011;6573;57.696;11.950;2023-04-23T04:08:07;5.10;;;2.60;;
13014;SDS011;6573;57.696;11.950;2023-04-23T04:10:36;3.80;;;1.90;;
13014;SDS011;6573;57.696;11.950;2023-04-23T04:13:06;3.50;;;2.13;;
13014;SDS011;6573;57.696;11.950;2023-04-23T04:15:34;2.27;;;2.07;;
13014;SDS011;6573;57.696;11.950;2023-04-23T04:18:04;2.67;;;2.13;;
13014;SDS011;6573;57.696;11.950;2023-04-23T04:20:32;3.00;;;2.23;;
13014;SDS011;6573;57.696;11.950;2023-04-23T04:23:00;5.83;;;2.17;;
13014;SDS011;6573;57.696;11.950;2023-04-23T04:25:28;2.97;;;1.90;;
13014;SDS011;6573;57.696;11.950;2023-04-23T04:27:57;2.80;;;2.07;;
13014;SDS011;6573;57.696;11.950;2023-04-23T04:30:25;4.77;;;2.30;;
13014;SDS011;6573;57.696;11.950;2023-04-23T04:32:54;3.80;;;2.30;;
13014;SDS011;6573;57.696;11.950;2023-04-23T04:35:23;3.03;;;2.03;;
13014;SDS011;6573;57.696;11.950;2023-04-23T04:37:52;2.67;;;2.30;;
13014;SDS011;6573;57.696;11.950;2023-04-23T04:40:20;4.03;;;2.10;;
13014;SDS011;6573;57.696;11.950;2023-04-23T04:42:48;4.07;;;2.50;;
13014;SDS011;6573;57.696;11.950;2023-04-23T04:45:18;3.17;;;2.33;;
13014;SDS011;6573;57.696;11.950;2023-04-23T04:47:46;3.40;;;2.37;;
13014;SDS011;6573;57.696;11.950;2023-04-23T04:50:15;3.77;;;2.10;;
13014;SDS011;6573;57.696;11.950;2023-04-23T04:52:45;6.67;;;2.53;;
13014;SDS011;6573;57.696;11.950;2023-04-23T04:55:13;6.00;;;2.60;;
13014;SDS011;6573;57.696;11.950;2023-04-23T04:57:41;5.77;;;2.77;;
13014;SDS011;6573;57.696;11.950;2023-04-23T05:00:20;3.77;;;2.30;;
13014;SDS011;6573;57.696;11.950;2023-04-23T05:02:49;2.43;;;2.20;;
13014;SDS011;6573;57.696;11.950;2023-04-23T05:05:18;3.87;;;2.50;;
13014;SDS011;6573;57.696;11.950;2023-04-23T05:07:50;3.60;;;2.60;;
13014;SDS011;6573;57.696;11.950;2023-04-23T05:10:19;6.63;;;3.10;;
13014;SDS011;6573;57.696;11.950;2023-04-23T05:12:48;4.53;;;2.93;;
13014;SDS011;6573;57.696;11.950;2023-04-23T05:15:17;6.77;;;3.00;;
13014;SDS011;6573;57.696;11.950;2023-04-23T05:17:45;5.17;;;3.23;;
13014;SDS011;6573;57.696;11.950;2023-04-23T05:20:15;6.90;;;3.33;;
13014;SDS011;6573;57.696;11.950;2023-04-23T05:22:43;5.47;;;2.97;;
13014;SDS011;6573;57.696;11.950;2023-04-23T05:25:13;6.40;;;3.33;;
13014;SDS011;6573;57.696;11.950;2023-04-23T05:27:41;6.97;;;2.90;;
13014;SDS011;6573;57.696;11.950;2023-04-23T05:30:10;5.83;;;3.00;;
13014;SDS011;6573;57.696;11.950;2023-04-23T05:32:39;3.10;;;2.80;;
13014;SDS011;6573;57.696;11.950;2023-04-23T05:35:07;4.50;;;3.50;;
13014;SDS011;6573;57.696;11.950;2023-04-23T05:37:36;6.30;;;3.83;;
13014;SDS011;6573;57.696;11.950;2023-04-23T05:40:04;7.43;;;3.90;;
13014;SDS011;6573;57.696;11.950;2023-04-23T05:42:35;4.57;;;3.30;;
13014;SDS011;6573;57.696;11.950;2023-04-23T05:45:04;6.80;;;4.20;;
13014;SDS011;6573;57.696;11.950;2023-04-23T05:47:34;4.17;;;3.50;;
13014;SDS011;6573;57.696;11.950;2023-04-23T05:50:03;5.50;;;4.00;;
13014;SDS011;6573;57.696;11.950;2023-04-23T05:52:32;6.07;;;3.70;;
13014;SDS011;6573;57.696;11.950;2023-04-23T05:55:03;5.57;;;3.80;;
13014;SDS011;6573;57.696;11.950;2023-04-23T05:57:32;8.43;;;4.60;;
13014;SDS011;6573;57.696;11.950;2023-04-23T06:00:02;6.23;;;4.13;;
13014;SDS011;6573;57.696;11.950;2023-04-23T06:02:35;6.80;;;4.90;;
13014;SDS011;6573;57.696;11.950;2023-04-23T06:05:03;5.90;;;4.20;;
13014;SDS011;6573;57.696;11.950;2023-04-23T06:07:33;6.77;;;5.07;;
13014;SDS011;6573;57.696;11.950;2023-04-23T06:10:02;8.93;;;5.50;;
13014;SDS011;6573;57.696;11.950;2023-04-23T06:12:31;7.40;;;4.93;;
13014;SDS011;6573;57.696;11.950;2023-04-23T06:14:59;7.10;;;4.40;;
13014;SDS011;6573;57.696;11.950;2023-04-23T06:17:29;7.57;;;4.80;;
13014;SDS011;6573;57.696;11.950;2023-04-23T06:19:57;7.30;;;4.77;;
13014;SDS011;6573;57.696;11.950;2023-04-23T06:22:28;9.67;;;4.87;;
13014;SDS011;6573;57.696;11.950;2023-04-23T06:24:56;7.80;;;5.07;;
13014;SDS011;6573;57.696;11.950;2023-04-23T06:27:24;6.27;;;4.57;;
13014;SDS011;6573;57.696;11.950;2023-04-23T06:29:53;8.47;;;4.70;;
13014;SDS011;6573;57.696;11.950;2023-04-23T06:32:21;10.60;;;5.10;;
13014;SDS011;6573;57.696;11.950;2023-04-23T06:34:51;8.17;;;5.17;;
13014;SDS011;6573;57.696;11.950;2023-04-23T06:37:27;9.83;;;6.17;;
13014;SDS011;6573;57.696;11.950;2023-04-23T06:39:57;8.53;;;5.47;;
13014;SDS011;6573;57.696;11.950;2023-04-23T06:42:26;8.17;;;5.40;;
13014;SDS011;6573;57.696;11.950;2023-04-23T06:44:54;7.70;;;5.33;;
13014;SDS011;6573;57.696;11.950;2023-04-23T06:47:24;8.90;;;6.03;;
13014;SDS011;6573;57.696;11.950;2023-04-23T06:49:57;11.03;;;5.33;;
13014;SDS011;6573;57.696;11.950;2023-04-23T06:52:26;7.77;;;6.63;;
13014;SDS011;6573;57.696;11.950;2023-04-23T06:54:54;7.87;;;5.80;;
13014;SDS011;6573;57.696;11.950;2023-04-23T06:57:23;6.97;;;5.33;;
13014;SDS011;6573;57.696;11.950;2023-04-23T06:59:51;11.13;;;5.83;;
13014;SDS011;6573;57.696;11.950;2023-04-23T07:02:19;10.73;;;6.10;;
13014;SDS011;6573;57.696;11.950;2023-04-23T07:04:47;7.30;;;5.27;;
13014;SDS011;6573;57.696;11.950;2023-04-23T07:07:17;8.40;;;6.37;;
13014;SDS011;6573;57.696;11.950;2023-04-23T07:09:46;13.40;;;5.73;;
13014;SDS011;6573;57.696;11.950;2023-04-23T07:12:14;8.13;;;5.67;;
13014;SDS011;6573;57.696;11.950;2023-04-23T07:14:42;9.43;;;5.60;;
13014;SDS011;6573;57.696;11.950;2023-04-23T07:17:10;7.93;;;5.63;;
13014;SDS011;6573;57.696;11.950;2023-04-23T07:19:39;8.37;;;5.50;;
13014;SDS011;6573;57.696;11.950;2023-04-23T07:22:07;6.57;;;5.13;;
13014;SDS011;6573;57.696;11.950;2023-04-23T07:24:37;8.63;;;5.40;;
13014;SDS011;6573;57.696;11.950;2023-04-23T07:27:07;9.50;;;6.80;;
13014;SDS011;6573;57.696;11.950;2023-04-23T07:29:35;8.73;;;6.90;;
13014;SDS011;6573;57.696;11.950;2023-04-23T07:32:03;7.90;;;5.70;;
13014;SDS011;6573;57.696;11.950;2023-04-23T07:34:31;9.60;;;7.10;;
13014;SDS011;6573;57.696;11.950;2023-04-23T07:37:03;7.93;;;7.13;;
13014;SDS011;6573;57.696;11.950;2023-04-23T07:39:31;7.93;;;5.77;;
13014;SDS011;6573;57.696;11.950;2023-04-23T07:42:01;11.20;;;7.00;;
13014;SDS011;6573;57.696;11.950;2023-04-23T07:44:31;11.47;;;7.90;;
13014;SDS011;6573;57.696;11.950;2023-04-23T07:46:59;13.13;;;6.77;;
13014;SDS011;6573;57.696;11.950;2023-04-23T07:49:27;9.53;;;6.53;;
13014;SDS011;6573;57.696;11.950;2023-04-23T07:51:55;9.23;;;6.93;;
13014;SDS011;6573;57.696;11.950;2023-04-23T07:54:24;12.33;;;8.07;;
13014;SDS011;6573;57.696;11.950;2023-04-23T07:56:53;11.50;;;8.43;;
13014;SDS011;6573;57.696;11.950;2023-04-23T07:59:23;13.80;;;8.43;;
13014;SDS011;6573;57.696;11.950;2023-04-23T08:01:54;12.63;;;8.90;;
13014;SDS011;6573;57.696;11.950;2023-04-23T08:04:22;12.47;;;8.57;;
13014;SDS011;6573;57.696;11.950;2023-04-23T08:06:51;16.50;;;10.10;;
13014;SDS011;6573;57.696;11.950;2023-04-23T08:09:19;18.17;;;11.70;;
13014;SDS011;6573;57.696;11.950;2023-04-23T08:11:48;21.13;;;12.37;;
13014;SDS011;6573;57.696;11.950;2023-04-23T08:14:16;19.57;;;13.07;;
13014;SDS011;6573;57.696;11.950;2023-04-23T08:16:46;19.60;;;13.90;;
13014;SDS011;6573;57.696;11.950;2023-04-23T08:19:14;22.00;;;13.87;;
13014;SDS011;6573;57.696;11.950;2023-04-23T08:21:43;21.70;;;14.57;;
13014;SDS011;6573;57.696;11.950;2023-04-23T08:24:11;17.50;;;12.20;;
13014;SDS011;6573;57.696;11.950;2023-04-23T08:26:39;24.13;;;15.13;;
13014;SDS011;6573;57.696;11.950;2023-04-23T08:29:08;23.80;;;15.70;;
13014;SDS011;6573;57.696;11.950;2023-04-23T08:31:37;22.40;;;15.60;;
13014;SDS011;6573;57.696;11.950;2023-04-23T08:34:06;21.27;;;14.97;;
13014;SDS011;6573;57.696;11.950;2023-04-23T08:36:35;22.27;;;15.67;;
13014;SDS011;6573;57.696;11.950;2023-04-23T08:39:03;23.33;;;15.57;;
13014;SDS011;6573;57.696;11.950;2023-04-23T08:41:33;23.97;;;16.20;;
13014;SDS011;6573;57.696;11.950;2023-04-23T08:44:07;19.37;;;14.27;;
13014;SDS011;6573;57.696;11.950;2023-04-23T08:46:43;25.87;;;16.33;;
13014;SDS011;6573;57.696;11.950;2023-04-23T08:49:15;25.60;;;16.10;;
13014;SDS011;6573;57.696;11.950;2023-04-23T08:51:47;21.90;;;16.30;;
13014;SDS011;6573;57.696;11.950;2023-04-23T08:54:18;19.43;;;15.50;;
13014;SDS011;6573;57.696;11.950;2023-04-23T08:56:49;24.27;;;16.53;;
13014;SDS011;6573;57.696;11.950;2023-04-23T08:59:18;22.70;;;19.27;;
13014;SDS011;6573;57.696;11.950;2023-04-23T09:01:48;24.20;;;19.17;;
13014;SDS011;6573;57.696;11.950;2023-04-23T09:04:18;18.90;;;12.60;;
13014;SDS011;6573;57.696;11.950;2023-04-23T09:06:46;23.00;;;14.40;;
13014;SDS011;6573;57.696;11.950;2023-04-23T09:09:15;18.70;;;14.30;;
13014;SDS011;6573;57.696;11.950;2023-04-23T09:11:44;19.20;;;13.57;;
13014;SDS011;6573;57.696;11.950;2023-04-23T09:14:12;16.57;;;13.77;;
13014;SDS011;6573;57.696;11.950;2023-04-23T09:16:40;22.13;;;16.53;;
13014;SDS011;6573;57.696;11.950;2023-04-23T09:19:10;16.50;;;11.67;;
13014;SDS011;6573;57.696;11.950;2023-04-23T09:21:40;15.93;;;10.97;;
13014;SDS011;6573;57.696;11.950;2023-04-23T09:24:09;13.27;;;11.90;;
13014;SDS011;6573;57.696;11.950;2023-04-23T09:26:42;10.07;;;8.43;;
13014;SDS011;6573;57.696;11.950;2023-04-23T09:29:12;13.70;;;11.03;;
13014;SDS011;6573;57.696;11.950;2023-04-23T09:31:44;14.27;;;11.70;;
13014;SDS011;6573;57.696;11.950;2023-04-23T09:34:15;11.63;;;7.87;;
13014;SDS011;6573;57.696;11.950;2023-04-23T09:36:46;13.43;;;8.77;;
13014;SDS011;6573;57.696;11.950;2023-04-23T09:39:16;11.33;;;9.77;;
13014;SDS011;6573;57.696;11.950;2023-04-23T09:41:46;12.47;;;8.43;;
13014;SDS011;6573;57.696;11.950;2023-04-23T09:44:16;10.60;;;8.57;;
13014;SDS011;6573;57.696;11.950;2023-04-23T09:46:45;12.93;;;9.70;;
13014;SDS011;6573;57.696;11.950;2023-04-23T09:49:13;10.40;;;7.83;;
13014;SDS011;6573;57.696;11.950;2023-04-23T09:51:42;10.33;;;7.43;;
13014;SDS011;6573;57.696;11.950;2023-04-23T09:54:14;10.50;;;6.33;;
13014;SDS011;6573;57.696;11.950;2023-04-23T09:56:48;11.07;;;6.67;;
13014;SDS011;6573;57.696;11.950;2023-04-23T09:59:20;13.10;;;6.53;;
13014;SDS011;6573;57.696;11.950;2023-04-23T10:02:05;10.17;;;6.40;;
13014;SDS011;6573;57.696;11.950;2023-04-23T10:04:35;12.60;;;6.83;;
13014;SDS011;6573;57.696;11.950;2023-04-23T10:07:06;9.47;;;7.17;;
13014;SDS011;6573;57.696;11.950;2023-04-23T10:09:41;8.27;;;6.00;;
13014;SDS011;6573;57.696;11.950;2023-04-23T10:12:10;9.27;;;5.90;;
13014;SDS011;6573;57.696;11.950;2023-04-23T10:14:42;9.67;;;5.90;;
13014;SDS011;6573;57.696;11.950;2023-04-23T10:17:10;10.83;;;6.80;;
13014;SDS011;6573;57.696;11.950;2023-04-23T10:19:39;8.80;;;5.17;;
13014;SDS011;6573;57.696;11.950;2023-04-23T10:22:11;7.80;;;5.27;;
13014;SDS011;6573;57.696;11.950;2023-04-23T10:24:45;7.57;;;5.60;;
13014;SDS011;6573;57.696;11.950;2023-04-23T10:27:18;8.63;;;6.03;;
13014;SDS011;6573;57.696;11.950;2023-04-23T10:30:10;9.50;;;5.90;;
13014;SDS011;6573;57.696;11.950;2023-04-23T10:32:40;8.87;;;5.50;;
13014;SDS011;6573;57.696;11.950;2023-04-23T10:35:08;8.00;;;5.50;;
13014;SDS011;6573;57.696;11.950;2023-04-23T10:37:38;9.43;;;6.57;;
13014;SDS011;6573;57.696;11.950;2023-04-23T10:40:09;9.33;;;7.00;;
13014;SDS011;6573;57.696;11.950;2023-04-23T10:42:41;9.87;;;7.33;;
13014;SDS011;6573;57.696;11.950;2023-04-23T10:45:11;11.30;;;7.13;;
13014;SDS011;6573;57.696;11.950;2023-04-23T10:47:52;9.70;;;6.20;;
13014;SDS011;6573;57.696;11.950;2023-04-23T10:50:22;10.17;;;7.60;;
13014;SDS011;6573;57.696;11.950;2023-04-23T10:52:53;8.23;;;7.37;;
13014;SDS011;6573;57.696;11.950;2023-04-23T10:55:24;11.67;;;5.97;;
13014;SDS011;6573;57.696;11.950;2023-04-23T10:57:55;7.13;;;5.23;;
13014;SDS011;6573;57.696;11.950;2023-04-23T11:00:29;8.93;;;5.53;;
13014;SDS011;6573;57.696;11.950;2023-04-23T11:03:30;10.20;;;7.50;;
13014;SDS011;6573;57.696;11.950;2023-04-23T11:06:11;11.07;;;7.63;;
13014;SDS011;6573;57.696;11.950;2023-04-23T11:08:51;10.10;;;8.30;;
13014;SDS011;6573;57.696;11.950;2023-04-23T11:11:23;10.57;;;6.67;;
13014;SDS011;6573;57.696;11.950;2023-04-23T11:14:09;12.37;;;6.60;;
13014;SDS011;6573;57.696;11.950;2023-04-23T11:16:39;10.73;;;6.77;;
13014;SDS011;6573;57.696;11.950;2023-04-23T11:19:08;10.37;;;6.60;;
13014;SDS011;6573;57.696;11.950;2023-04-23T11:22:00;16.50;;;7.17;;
13014;SDS011;6573;57.696;11.950;2023-04-23T11:24:32;7.40;;;5.77;;
13014;SDS011;6573;57.696;11.950;2023-04-23T11:27:04;7.83;;;5.37;;
13014;SDS011;6573;57.696;11.950;2023-04-23T11:29:34;6.33;;;4.70;;
13014;SDS011;6573;57.696;11.950;2023-04-23T11:32:03;9.57;;;5.17;;
13014;SDS011;6573;57.696;11.950;2023-04-23T11:34:36;7.20;;;5.50;;
13014;SDS011;6573;57.696;11.950;2023-04-23T11:37:08;19.60;;;5.57;;
13014;SDS011;6573;57.696;11.950;2023-04-23T11:39:39;8.07;;;5.07;;
13014;SDS011;6573;57.696;11.950;2023-04-23T11:42:09;9.63;;;5.67;;
13014;SDS011;6573;57.696;11.950;2023-04-23T11:44:38;12.47;;;6.23;;
13014;SDS011;6573;57.696;11.950;2023-04-23T11:47:08;15.77;;;6.80;;
13014;SDS011;6573;57.696;11.950;2023-04-23T11:49:37;14.20;;;6.87;;
13014;SDS011;6573;57.696;11.950;2023-04-23T11:52:09;10.67;;;6.33;;
13014;SDS011;6573;57.696;11.950;2023-04-23T11:54:40;19.47;;;7.50;;
13014;SDS011;6573;57.696;11.950;2023-04-23T11:57:08;9.97;;;6.17;;
13014;SDS011;6573;57.696;11.950;2023-04-23T11:59:37;10.33;;;6.30;;
13014;SDS011;6573;57.696;11.950;2023-04-23T12:02:06;8.13;;;5.20;;
13014;SDS011;6573;57.696;11.950;2023-04-23T12:04:34;7.53;;;5.97;;
13014;SDS011;6573;57.696;11.950;2023-04-23T12:07:06;10.13;;;6.13;;
13014;SDS011;6573;57.696;11.950;2023-04-23T12:09:52;11.33;;;6.07;;
13014;SDS011;6573;57.696;11.950;2023-04-23T12:12:31;11.33;;;5.83;;
13014;SDS011;6573;57.696;11.950;2023-04-23T12:15:03;6.70;;;4.80;;
13014;SDS011;6573;57.696;11.950;2023-04-23T12:17:32;8.83;;;5.10;;
13014;SDS011;6573;57.696;11.950;2023-04-23T12:20:02;9.37;;;5.43;;
13014;SDS011;6573;57.696;11.950;2023-04-23T12:22:32;7.17;;;5.03;;
13014;SDS011;6573;57.696;11.950;2023-04-23T12:25:03;9.43;;;6.00;;
13014;SDS011;6573;57.696;11.950;2023-04-23T12:27:37;8.90;;;5.47;;
13014;SDS011;6573;57.696;11.950;2023-04-23T12:30:08;10.03;;;6.10;;
13014;SDS011;6573;57.696;11.950;2023-04-23T12:32:38;9.90;;;6.30;;
13014;SDS011;6573;57.696;11.950;2023-04-23T12:35:06;10.17;;;5.87;;
13014;SDS011;6573;57.696;11.950;2023-04-23T12:37:36;10.10;;;6.37;;
13014;SDS011;6573;57.696;11.950;2023-04-23T12:40:07;10.17;;;7.07;;
13014;SDS011;6573;57.696;11.950;2023-04-23T12:42:36;9.60;;;5.87;;
13014;SDS011;6573;57.696;11.950;2023-04-23T12:45:05;12.70;;;7.03;;
13014;SDS011;6573;57.696;11.950;2023-04-23T12:47:36;9.07;;;6.77;;
13014;SDS011;6573;57.696;11.950;2023-04-23T12:50:05;11.70;;;6.10;;
13014;SDS011;6573;57.696;11.950;2023-04-23T12:52:34;12.80;;;6.60;;
13014;SDS011;6573;57.696;11.950;2023-04-23T12:55:03;11.03;;;6.33;;
13014;SDS011;6573;57.696;11.950;2023-04-23T12:57:35;11.97;;;7.27;;
13014;SDS011;6573;57.696;11.950;2023-04-23T13:00:03;12.97;;;7.27;;
13014;SDS011;6573;57.696;11.950;2023-04-23T13:02:34;11.23;;;7.33;;
13014;SDS011;6573;57.696;11.950;2023-04-23T13:05:03;15.97;;;9.30;;
13014;SDS011;6573;57.696;11.950;2023-04-23T13:07:32;12.70;;;7.80;;
13014;SDS011;6573;57.696;11.950;2023-04-23T13:10:00;13.33;;;7.13;;
13014;SDS011;6573;57.696;11.950;2023-04-23T13:12:28;10.87;;;7.60;;
13014;SDS011;6573;57.696;11.950;2023-04-23T13:14:58;10.93;;;8.67;;
13014;SDS011;6573;57.696;11.950;2023-04-23T13:17:26;14.50;;;7.87;;
13014;SDS011;6573;57.696;11.950;2023-04-23T13:19:54;11.23;;;7.90;;
13014;SDS011;6573;57.696;11.950;2023-04-23T13:22:26;10.67;;;7.77;;
13014;SDS011;6573;57.696;11.950;2023-04-23T13:24:55;12.10;;;7.50;;
13014;SDS011;6573;57.696;11.950;2023-04-23T13:27:26;10.17;;;7.13;;
13014;SDS011;6573;57.696;11.950;2023-04-23T13:29:55;12.17;;;7.50;;
13014;SDS011;6573;57.696;11.950;2023-04-23T13:32:25;10.60;;;7.40;;
13014;SDS011;6573;57.696;11.950;2023-04-23T13:34:57;10.97;;;7.60;;
13014;SDS011;6573;57.696;11.950;2023-04-23T13:37:29;10.83;;;7.13;;
13014;SDS011;6573;57.696;11.950;2023-04-23T13:39:58;11.30;;;7.07;;
13014;SDS011;6573;57.696;11.950;2023-04-23T13:42:26;12.03;;;8.10;;
13014;SDS011;6573;57.696;11.950;2023-04-23T13:44:54;11.43;;;7.13;;
13014;SDS011;6573;57.696;11.950;2023-04-23T13:47:23;11.93;;;7.10;;
13014;SDS011;6573;57.696;11.950;2023-04-23T13:49:53;9.67;;;7.40;;
13014;SDS011;6573;57.696;11.950;2023-04-23T13:52:22;11.97;;;7.13;;
13014;SDS011;6573;57.696;11.950;2023-04-23T13:54:50;14.80;;;7.93;;
13014;SDS011;6573;57.696;11.950;2023-04-23T13:57:20;12.10;;;7.23;;
13014;SDS011;6573;57.696;11.950;2023-04-23T13:59:49;9.83;;;7.40;;
13014;SDS011;6573;57.696;11.950;2023-04-23T14:02:17;9.27;;;7.03;;
13014;SDS011;6573;57.696;11.950;2023-04-23T14:04:48;9.17;;;7.03;;
13014;SDS011;6573;57.696;11.950;2023-04-23T14:07:18;10.33;;;7.27;;
13014;SDS011;6573;57.696;11.950;2023-04-23T14:09:47;8.67;;;7.27;;
13014;SDS011;6573;57.696;11.950;2023-04-23T14:12:18;9.67;;;6.97;;
13014;SDS011;6573;57.696;11.950;2023-04-23T14:14:46;10.23;;;7.67;;
13014;SDS011;6573;57.696;11.950;2023-04-23T14:17:15;11.63;;;8.03;;
13014;SDS011;6573;57.696;11.950;2023-04-23T14:19:43;10.77;;;7.93;;
13014;SDS011;6573;57.696;11.950;2023-04-23T14:22:11;12.10;;;8.60;;
13014;SDS011;6573;57.696;11.950;2023-04-23T14:24:44;15.10;;;9.00;;
13014;SDS011;6573;57.696;11.950;2023-04-23T14:27:16;12.70;;;8.60;;
13014;SDS011;6573;57.696;11.950;2023-04-23T14:29:44;14.40;;;9.90;;
13014;SDS011;6573;57.696;11.950;2023-04-23T14:32:17;14.07;;;9.27;;
13014;SDS011;6573;57.696;11.950;2023-04-23T14:34:45;19.17;;;10.67;;
13014;SDS011;6573;57.696;11.950;2023-04-23T14:37:13;14.57;;;11.93;;
13014;SDS011;6573;57.696;11.950;2023-04-23T14:39:44;19.13;;;13.20;;
13014;SDS011;6573;57.696;11.950;2023-04-23T14:42:13;14.73;;;10.20;;
13014;SDS011;6573;57.696;11.950;2023-04-23T14:44:41;17.03;;;10.10;;
13014;SDS011;6573;57.696;11.950;2023-04-23T14:47:12;16.60;;;12.63;;
13014;SDS011;6573;57.696;11.950;2023-04-23T14:49:41;16.70;;;12.70;;
13014;SDS011;6573;57.696;11.950;2023-04-23T14:52:11;19.23;;;11.40;;
13014;SDS011;6573;57.696;11.950;2023-04-23T14:54:39;18.90;;;10.80;;
13014;SDS011;6573;57.696;11.950;2023-04-23T14:57:09;16.10;;;10.73;;